createdAt,value
2022-12-14T00:00:47.426Z,17.52
2022-12-14T00:03:14.605Z,22.58
2022-12-14T00:05:41.769Z,26.38
2022-12-14T00:08:09.143Z,22.98
2022-12-14T00:10:36.549Z,18.13
2022-12-14T00:13:03.212Z,17.48
2022-12-14T00:15:30.279Z,21.08
2022-12-14T00:17:56.944Z,25.17
2022-12-14T00:20:23.798Z,28.45
2022-12-14T00:22:50.481Z,22.90
2022-12-14T00:25:17.117Z,11.73
2022-12-14T00:27:44.541Z,24.40
2022-12-14T00:30:15.586Z,21.15
2022-12-14T00:32:42.308Z,25.08
2022-12-14T00:35:09.689Z,19.05
2022-12-14T00:37:36.615Z,20.75
2022-12-14T00:40:04.354Z,21.25
2022-12-14T00:42:31.035Z,25.45
2022-12-14T00:44:57.630Z,24.80
2022-12-14T00:47:24.255Z,20.17
2022-12-14T00:49:50.876Z,19.27
2022-12-14T00:52:17.450Z,22.85
2022-12-14T00:54:44.793Z,17.98
2022-12-14T00:57:11.290Z,22.17
2022-12-14T00:59:37.922Z,14.00
2022-12-14T01:02:04.538Z,22.38
2022-12-14T01:04:31.166Z,15.60
2022-12-14T01:06:57.632Z,24.15
2022-12-14T01:09:25.400Z,29.65
2022-12-14T01:11:53.155Z,18.23
2022-12-14T01:14:20.809Z,19.75
2022-12-14T01:16:47.514Z,19.48
2022-12-14T01:19:14.734Z,21.75
2022-12-14T01:21:41.576Z,21.23
2022-12-14T01:24:08.793Z,26.10
2022-12-14T01:26:39.311Z,16.55
2022-12-14T01:29:06.655Z,15.93
2022-12-14T01:31:37.096Z,19.20
2022-12-14T01:34:03.770Z,21.52
2022-12-14T01:36:32.098Z,22.88
2022-12-14T01:38:59.486Z,19.40
2022-12-14T01:41:27.551Z,21.73
2022-12-14T01:43:54.053Z,11.93
2022-12-14T01:46:33.098Z,20.15
2022-12-14T01:49:02.071Z,15.13
2022-12-14T01:51:29.791Z,23.00
2022-12-14T01:53:57.595Z,20.02
2022-12-14T01:56:24.131Z,14.82
2022-12-14T01:58:50.692Z,22.40
2022-12-14T02:01:17.346Z,22.02
2022-12-14T02:03:47.444Z,14.57
2022-12-14T02:06:25.586Z,15.25
2022-12-14T02:08:53.706Z,12.63
2022-12-14T02:11:31.851Z,12.90
2022-12-14T02:13:58.467Z,14.77
2022-12-14T02:16:25.279Z,19.77
2022-12-14T02:18:51.818Z,19.48
2022-12-14T02:21:22.838Z,15.50
2022-12-14T02:24:07.727Z,9.95
2022-12-14T02:26:47.422Z,14.43
2022-12-14T02:29:37.202Z,27.15
2022-12-14T02:32:26.331Z,18.83
2022-12-14T02:35:07.799Z,20.33
2022-12-14T02:37:59.475Z,15.45
2022-12-14T02:40:30.141Z,10.95
2022-12-14T02:43:18.673Z,10.77
2022-12-14T02:45:49.288Z,20.90
2022-12-14T02:48:18.334Z,10.95
2022-12-14T02:50:51.475Z,10.20
2022-12-14T02:53:42.623Z,14.25
2022-12-14T02:56:11.517Z,8.30
2022-12-14T02:58:48.954Z,8.07
2022-12-14T03:01:16.708Z,3.15
2022-12-14T03:03:43.649Z,15.10
2022-12-14T03:06:16.715Z,13.60
2022-12-14T03:08:45.518Z,8.15
2022-12-14T03:11:14.855Z,12.15
2022-12-14T03:13:46.235Z,5.45
2022-12-14T03:16:20.196Z,8.80
2022-12-14T03:18:50.725Z,17.75
2022-12-14T03:21:19.207Z,8.30
2022-12-14T03:23:48.804Z,17.80
2022-12-14T03:26:15.483Z,8.95
2022-12-14T03:28:45.614Z,12.38
2022-12-14T03:31:15.550Z,10.98
2022-12-14T03:33:43.917Z,13.35
2022-12-14T03:36:16.370Z,13.82
2022-12-14T03:38:44.308Z,12.27
2022-12-14T03:41:18.858Z,18.20
2022-12-14T03:44:04.536Z,16.05
2022-12-14T03:46:34.423Z,3.90
2022-12-14T03:49:12.067Z,5.28
2022-12-14T03:52:01.162Z,13.65
2022-12-14T03:54:31.099Z,7.10
2022-12-14T03:57:16.662Z,2.47
2022-12-14T03:59:48.490Z,8.02
2022-12-14T04:02:24.390Z,13.20
2022-12-14T04:04:58.324Z,10.38
2022-12-14T04:07:24.909Z,9.20
2022-12-14T04:09:51.379Z,14.05
2022-12-14T04:12:53.857Z,10.60
2022-12-14T04:15:43.208Z,8.63
2022-12-14T04:18:32.297Z,12.05
2022-12-14T04:21:05.498Z,11.75
2022-12-14T04:23:52.985Z,16.58
2022-12-14T04:26:22.911Z,13.77
2022-12-14T04:29:11.183Z,10.13
2022-12-14T04:31:39.931Z,10.05
2022-12-14T04:34:07.109Z,9.15
2022-12-14T04:36:42.963Z,15.50
2022-12-14T04:39:14.028Z,11.20
2022-12-14T04:41:45.682Z,11.05
2022-12-14T04:44:14.466Z,10.50
2022-12-14T04:46:41.727Z,12.30
2022-12-14T04:49:16.733Z,14.73
2022-12-14T04:51:47.918Z,16.55
2022-12-14T04:54:29.917Z,17.00
2022-12-14T04:57:00.934Z,12.65
2022-12-14T04:59:27.511Z,28.13
2022-12-14T05:02:11.612Z,18.38
2022-12-14T05:04:54.878Z,13.15
2022-12-14T05:07:27.472Z,13.70
2022-12-14T05:10:23.384Z,15.20
2022-12-14T05:12:49.865Z,16.55
2022-12-14T05:15:23.333Z,13.13
2022-12-14T05:17:50.203Z,11.77
2022-12-14T05:20:18.342Z,10.35
2022-12-14T05:22:45.209Z,14.85
2022-12-14T05:25:11.685Z,10.52
2022-12-14T05:27:38.348Z,14.55
2022-12-14T05:30:06.628Z,8.60
2022-12-14T05:32:33.532Z,14.68
2022-12-14T05:35:00.229Z,7.25
2022-12-14T05:37:26.768Z,9.40
2022-12-14T05:39:54.020Z,8.38
2022-12-14T05:42:20.825Z,6.68
2022-12-14T05:44:47.383Z,7.57
2022-12-14T05:47:14.135Z,8.38
2022-12-14T05:49:40.724Z,3.28
2022-12-14T05:52:07.417Z,7.75
2022-12-14T05:54:33.966Z,9.95
2022-12-14T05:57:00.580Z,10.02
2022-12-14T05:59:27.309Z,2.30
2022-12-14T06:01:54.007Z,11.07
2022-12-14T06:04:20.776Z,10.52
2022-12-14T06:06:47.380Z,4.30
2022-12-14T06:09:15.618Z,6.82
2022-12-14T06:11:42.424Z,5.55
2022-12-14T06:14:09.518Z,10.80
2022-12-14T06:16:36.594Z,11.82
2022-12-14T06:19:04.244Z,3.45
2022-12-14T06:21:32.383Z,8.70
2022-12-14T06:23:59.508Z,7.32
2022-12-14T06:26:27.292Z,15.30
2022-12-14T06:28:54.869Z,6.75
2022-12-14T06:31:22.621Z,14.77
2022-12-14T06:33:49.479Z,20.60
2022-12-14T06:36:17.869Z,14.88
2022-12-14T06:38:44.540Z,16.25
2022-12-14T06:41:12.333Z,16.52
2022-12-14T06:43:38.788Z,13.50
2022-12-14T06:46:15.528Z,17.05
2022-12-14T06:48:42.714Z,18.08
2022-12-14T06:51:09.436Z,8.45
2022-12-14T06:53:36.270Z,15.20
2022-12-14T06:56:10.553Z,9.57
2022-12-14T06:58:37.172Z,7.85
2022-12-14T07:01:13.214Z,16.70
2022-12-14T07:03:42.792Z,13.77
2022-12-14T07:06:10.161Z,17.90
2022-12-14T07:08:37.614Z,13.63
2022-12-14T07:11:05.482Z,20.05
2022-12-14T07:13:32.036Z,19.23
2022-12-14T07:15:59.459Z,23.38
2022-12-14T07:18:26.804Z,17.17
2022-12-14T07:21:04.268Z,19.05
2022-12-14T07:23:32.344Z,17.98
2022-12-14T07:26:06.514Z,14.98
2022-12-14T07:28:33.670Z,17.50
2022-12-14T07:31:01.640Z,17.67
2022-12-14T07:33:28.793Z,19.95
2022-12-14T07:36:09.885Z,27.15
2022-12-14T07:38:37.119Z,20.95
2022-12-14T07:41:08.233Z,40.03
2022-12-14T07:43:35.072Z,57.55
2022-12-14T07:46:03.179Z,157.35
2022-12-14T07:48:29.786Z,23.00
2022-12-14T07:51:01.631Z,27.58
2022-12-14T07:53:28.665Z,21.85
2022-12-14T07:55:55.517Z,24.30
2022-12-14T07:58:22.667Z,27.85
2022-12-14T08:00:49.196Z,27.13
2022-12-14T08:03:15.829Z,26.02
2022-12-14T08:05:42.475Z,41.90
2022-12-14T08:08:09.020Z,21.38
2022-12-14T08:10:40.195Z,22.67
2022-12-14T08:13:07.129Z,23.80
2022-12-14T08:15:36.738Z,18.35
2022-12-14T08:18:03.255Z,19.92
2022-12-14T08:20:29.909Z,21.40
2022-12-14T08:22:56.431Z,23.52
2022-12-14T08:25:22.915Z,21.85
2022-12-14T08:27:49.445Z,16.52
2022-12-14T08:30:16.114Z,16.27
2022-12-14T08:32:42.639Z,21.65
2022-12-14T08:35:09.351Z,15.75
2022-12-14T08:37:35.869Z,22.60
2022-12-14T08:40:03.623Z,26.38
2022-12-14T08:42:30.502Z,21.77
2022-12-14T08:44:57.081Z,27.77
2022-12-14T08:47:23.630Z,17.13
2022-12-14T08:49:50.249Z,19.88
2022-12-14T08:52:16.955Z,17.75
2022-12-14T08:54:43.503Z,20.42
2022-12-14T08:57:10.111Z,17.92
2022-12-14T09:00:00.697Z,25.15
2022-12-14T09:02:23.362Z,26.77
2022-12-14T09:04:50.003Z,27.00
2022-12-14T09:07:16.552Z,27.20
2022-12-14T09:09:43.286Z,19.80
2022-12-14T09:12:09.868Z,22.88
2022-12-14T09:14:36.602Z,15.13
2022-12-14T09:17:03.514Z,15.98
2022-12-14T09:19:30.165Z,12.85
2022-12-14T09:21:58.150Z,18.33
2022-12-14T09:24:24.831Z,17.95
2022-12-14T09:26:51.667Z,17.15
2022-12-14T09:29:18.579Z,17.33
2022-12-14T09:31:45.572Z,23.10
2022-12-14T09:34:12.602Z,30.98
2022-12-14T09:36:39.286Z,17.85
2022-12-14T09:39:06.110Z,11.40
2022-12-14T09:41:35.866Z,14.55
2022-12-14T09:44:18.142Z,20.85
2022-12-14T09:47:04.376Z,13.10
2022-12-14T09:49:32.565Z,17.48
2022-12-14T09:52:04.046Z,24.17
2022-12-14T09:54:36.108Z,20.40
2022-12-14T09:57:06.748Z,15.65
2022-12-14T09:59:34.156Z,19.73
2022-12-14T10:02:34.490Z,19.90
2022-12-14T10:05:05.317Z,17.83
2022-12-14T10:07:50.659Z,16.52
2022-12-14T10:10:21.717Z,23.48
2022-12-14T10:12:57.340Z,16.27
2022-12-14T10:15:26.831Z,19.05
2022-12-14T10:18:17.552Z,22.35
2022-12-14T10:21:28.215Z,20.23
2022-12-14T10:24:01.575Z,19.00
2022-12-14T10:26:35.958Z,21.63
2022-12-14T10:29:05.070Z,20.55
2022-12-14T10:31:41.000Z,25.67
2022-12-14T10:34:15.597Z,63.22
2022-12-14T10:36:51.819Z,67.45
2022-12-14T10:39:24.538Z,105.47
2022-12-14T10:41:55.135Z,56.35
2022-12-14T10:44:25.180Z,86.63
2022-12-14T10:47:10.782Z,62.67
2022-12-14T10:49:57.647Z,30.90
2022-12-14T10:52:26.970Z,30.65
2022-12-14T10:54:55.658Z,49.75
2022-12-14T10:57:26.458Z,37.78
2022-12-14T11:00:07.737Z,74.97
2022-12-14T11:02:38.457Z,72.40
2022-12-14T11:05:16.800Z,58.45
2022-12-14T11:07:45.713Z,22.60
2022-12-14T11:10:17.092Z,25.83
2022-12-14T11:12:53.490Z,29.60
2022-12-14T11:15:25.883Z,33.53
2022-12-14T11:18:21.873Z,50.30
2022-12-14T11:20:53.336Z,66.23
2022-12-14T11:23:20.913Z,55.17
2022-12-14T11:25:48.997Z,164.27
2022-12-14T11:28:15.595Z,63.55
2022-12-14T11:30:52.157Z,24.92
2022-12-14T11:33:18.779Z,43.88
2022-12-14T11:35:52.634Z,36.08
2022-12-14T11:38:19.916Z,181.60
2022-12-14T11:40:47.148Z,30.80
2022-12-14T11:43:23.730Z,103.13
2022-12-14T11:45:51.162Z,278.15
2022-12-14T11:48:19.994Z,55.03
2022-12-14T11:50:48.284Z,101.28
2022-12-14T11:53:16.148Z,23.50
2022-12-14T11:55:48.795Z,90.47
2022-12-14T11:58:18.432Z,24.00
2022-12-14T12:00:47.603Z,24.67
2022-12-14T12:03:18.419Z,31.20
2022-12-14T12:05:45.086Z,40.20
2022-12-14T12:08:17.617Z,29.23
2022-12-14T12:10:50.320Z,33.10
2022-12-14T12:13:20.334Z,54.13
2022-12-14T12:15:50.178Z,58.00
2022-12-14T12:18:27.455Z,37.30
2022-12-14T12:21:07.111Z,49.67
2022-12-14T12:23:54.036Z,23.90
2022-12-14T12:26:27.494Z,40.53
2022-12-14T12:29:02.784Z,31.33
2022-12-14T12:31:40.913Z,30.27
2022-12-14T12:34:17.127Z,37.97
2022-12-14T12:37:17.101Z,23.90
2022-12-14T12:39:31.952Z,30.47
2022-12-14T12:42:21.927Z,25.53
2022-12-14T12:45:04.661Z,34.43
2022-12-14T12:47:47.203Z,41.47
2022-12-14T12:50:23.127Z,37.37
2022-12-14T12:53:08.416Z,18.70
2022-12-14T12:55:37.835Z,30.37
2022-12-14T12:58:09.463Z,32.17
2022-12-14T13:00:38.043Z,31.37
2022-12-14T13:03:07.787Z,21.03
2022-12-14T13:05:49.938Z,26.67
2022-12-14T13:08:16.525Z,24.30
2022-12-14T13:11:09.114Z,32.00
2022-12-14T13:13:33.101Z,28.87
2022-12-14T13:16:06.971Z,23.53
2022-12-14T13:21:37.355Z,26.80
2022-12-14T13:24:04.984Z,27.67
2022-12-14T13:26:59.012Z,30.73
2022-12-14T13:29:37.622Z,24.93
2022-12-14T13:32:10.370Z,24.30
2022-12-14T13:34:41.276Z,25.40
2022-12-14T13:37:26.677Z,25.90
2022-12-14T13:40:11.966Z,23.53
2022-12-14T13:42:41.713Z,34.50
2022-12-14T13:45:34.832Z,24.63
2022-12-14T13:48:06.225Z,311.87
2022-12-14T13:50:39.131Z,80.47
2022-12-14T13:53:12.042Z,30.07
2022-12-14T13:55:46.120Z,35.30
2022-12-14T13:58:17.229Z,46.33
2022-12-14T14:00:55.896Z,22.90
2022-12-14T14:03:34.979Z,27.67
2022-12-14T14:06:09.020Z,24.57
2022-12-14T14:08:41.796Z,26.63
2022-12-14T14:11:36.537Z,23.07
2022-12-14T14:14:11.482Z,37.13
2022-12-14T14:16:41.794Z,27.63
2022-12-14T14:19:08.406Z,21.50
2022-12-14T14:22:06.008Z,21.10
2022-12-14T14:24:29.473Z,37.73
2022-12-14T14:27:00.835Z,22.20
2022-12-14T14:29:31.389Z,36.23
2022-12-14T14:32:02.897Z,27.07
2022-12-14T14:34:44.725Z,29.33
2022-12-14T14:37:20.469Z,27.20
2022-12-14T14:40:07.191Z,24.70
2022-12-14T14:43:06.257Z,31.43
2022-12-14T14:45:40.790Z,24.33
2022-12-14T14:48:33.769Z,29.57
2022-12-14T14:51:14.452Z,25.50
2022-12-14T14:53:41.307Z,32.20
2022-12-14T14:56:12.604Z,32.80
2022-12-14T14:58:40.619Z,37.30
2022-12-14T15:01:19.986Z,21.70
2022-12-14T15:03:53.195Z,31.47
2022-12-14T15:06:28.374Z,28.30
2022-12-14T15:09:15.288Z,34.63
2022-12-14T15:11:46.518Z,31.47
2022-12-14T15:14:17.790Z,24.07
2022-12-14T15:16:45.756Z,26.35
2022-12-14T15:19:22.922Z,34.78
2022-12-14T15:22:00.621Z,37.85
2022-12-14T15:24:27.387Z,47.10
2022-12-14T15:26:53.994Z,186.88
2022-12-14T15:29:24.169Z,71.75
2022-12-14T15:31:59.075Z,66.30
2022-12-14T15:34:26.683Z,56.03
2022-12-14T15:36:53.864Z,50.50
2022-12-14T15:39:32.835Z,73.40
2022-12-14T15:42:03.341Z,104.53
2022-12-14T15:44:30.020Z,73.45
2022-12-14T15:46:56.581Z,64.70
2022-12-14T15:49:23.124Z,58.08
2022-12-14T15:51:50.276Z,48.42
2022-12-14T15:54:22.399Z,44.10
2022-12-14T15:56:53.810Z,42.97
2022-12-14T15:59:22.360Z,57.75
2022-12-14T16:01:56.786Z,54.42
2022-12-14T16:04:27.695Z,57.72
2022-12-14T16:07:09.166Z,52.47
2022-12-14T16:09:50.225Z,52.00
2022-12-14T16:12:24.319Z,51.05
2022-12-14T16:14:58.691Z,76.95
2022-12-14T16:17:30.515Z,44.88
2022-12-14T16:20:00.473Z,59.05
2022-12-14T16:22:32.198Z,62.15
2022-12-14T16:25:08.114Z,46.63
2022-12-14T16:27:42.503Z,44.00
2022-12-14T16:30:17.577Z,36.25
2022-12-14T16:32:45.080Z,48.67
2022-12-14T16:35:24.779Z,44.42
2022-12-14T16:37:53.257Z,47.60
2022-12-14T16:40:40.164Z,50.17
2022-12-14T16:43:07.513Z,42.65
2022-12-14T16:45:43.573Z,48.85
2022-12-14T16:48:18.060Z,39.85
2022-12-14T16:51:07.893Z,54.28
2022-12-14T16:53:31.765Z,51.08
2022-12-14T16:56:15.538Z,43.60
2022-12-14T16:58:50.634Z,54.47
2022-12-14T17:01:17.554Z,56.08
2022-12-14T17:03:50.573Z,56.47
2022-12-14T17:06:30.055Z,61.78
2022-12-14T17:08:56.802Z,55.00
2022-12-14T17:11:23.529Z,64.60
2022-12-14T17:13:50.111Z,53.60
2022-12-14T17:16:18.779Z,56.08
2022-12-14T17:18:45.441Z,58.13
2022-12-14T17:21:28.789Z,85.90
2022-12-14T17:23:56.068Z,50.38
2022-12-14T17:26:27.348Z,48.75
2022-12-14T17:28:54.667Z,57.00
2022-12-14T17:31:23.579Z,54.08
2022-12-14T17:33:54.558Z,56.45
2022-12-14T17:36:21.200Z,60.38
2022-12-14T17:38:47.897Z,81.80
2022-12-14T17:41:18.518Z,55.10
2022-12-14T17:43:49.943Z,63.85
2022-12-14T17:46:20.391Z,59.97
2022-12-14T17:48:47.231Z,59.85
2022-12-14T17:51:20.915Z,64.65
2022-12-14T17:53:47.637Z,54.28
2022-12-14T17:56:14.398Z,62.63
2022-12-14T17:58:41.042Z,74.18
2022-12-14T18:01:07.766Z,81.00
2022-12-14T18:03:37.782Z,87.13
2022-12-14T18:06:04.667Z,86.72
2022-12-14T18:08:31.394Z,85.28
2022-12-14T18:11:13.332Z,98.85
2022-12-14T18:13:40.968Z,86.18
2022-12-14T18:16:10.468Z,78.18
2022-12-14T18:18:37.126Z,69.70
2022-12-14T18:21:04.760Z,62.25
2022-12-14T18:23:31.906Z,57.55
2022-12-14T18:25:59.716Z,86.35
2022-12-14T18:28:26.451Z,68.35
2022-12-14T18:30:55.564Z,71.20
2022-12-14T18:33:23.629Z,74.05
2022-12-14T18:35:50.891Z,72.25
2022-12-14T18:38:17.616Z,73.47
2022-12-14T18:40:49.385Z,68.68
2022-12-14T18:43:26.838Z,81.05
2022-12-14T18:45:54.201Z,85.68
2022-12-14T18:48:21.284Z,96.22
2022-12-14T18:50:49.812Z,84.97
2022-12-14T18:53:18.121Z,91.85
2022-12-14T18:55:44.794Z,75.25
2022-12-14T18:58:16.136Z,88.60
2022-12-14T19:00:43.369Z,88.25
2022-12-14T19:03:10.149Z,104.32
2022-12-14T19:05:37.161Z,81.15
2022-12-14T19:08:04.035Z,78.03
2022-12-14T19:10:31.853Z,82.10
2022-12-14T19:12:58.782Z,74.70
2022-12-14T19:15:27.275Z,62.72
2022-12-14T19:17:54.291Z,70.00
2022-12-14T19:20:21.924Z,86.05
2022-12-14T19:22:48.834Z,87.00
2022-12-14T19:25:15.728Z,66.95
2022-12-14T19:28:25.808Z,73.20
2022-12-14T19:30:30.250Z,64.80
2022-12-14T19:32:58.774Z,62.47
2022-12-14T19:35:25.737Z,63.20
2022-12-14T19:37:52.657Z,68.82
2022-12-14T19:40:20.387Z,63.75
2022-12-14T19:42:47.156Z,66.05
2022-12-14T19:45:14.451Z,70.82
2022-12-14T19:47:41.201Z,66.88
2022-12-14T19:50:07.975Z,62.80
2022-12-14T19:52:34.964Z,69.55
2022-12-14T19:55:01.916Z,68.38
2022-12-14T19:57:28.488Z,64.28
2022-12-14T19:59:56.961Z,71.03
2022-12-14T20:02:23.821Z,68.22
2022-12-14T20:04:50.733Z,75.63
2022-12-14T20:07:17.479Z,89.55
2022-12-14T20:09:44.048Z,65.35
2022-12-14T20:12:11.385Z,81.95
2022-12-14T20:14:40.056Z,78.95
2022-12-14T20:17:07.694Z,76.93
2022-12-14T20:19:36.299Z,66.75
2022-12-14T20:22:03.476Z,77.97
2022-12-14T20:24:30.075Z,72.35
2022-12-14T20:26:56.762Z,95.75
2022-12-14T20:29:23.271Z,70.38
2022-12-14T20:31:49.867Z,67.90
2022-12-14T20:34:16.628Z,70.22
2022-12-14T20:36:43.241Z,69.90
2022-12-14T20:39:10.074Z,87.85
2022-12-14T20:41:36.732Z,77.03
2022-12-14T20:44:06.401Z,69.32
2022-12-14T20:46:34.039Z,90.75
2022-12-14T20:49:02.375Z,70.65
2022-12-14T20:51:30.602Z,78.05
2022-12-14T20:53:57.553Z,86.20
2022-12-14T20:56:24.401Z,73.30
2022-12-14T20:58:51.617Z,87.05
2022-12-14T21:01:18.739Z,92.78
2022-12-14T21:03:48.528Z,86.57
2022-12-14T21:06:16.636Z,80.93
2022-12-14T21:09:01.803Z,80.63
2022-12-14T21:11:47.448Z,80.97
2022-12-14T21:14:14.279Z,91.30
2022-12-14T21:16:40.940Z,84.78
2022-12-14T21:19:07.747Z,77.28
2022-12-14T21:21:34.570Z,82.60
2022-12-14T21:24:01.166Z,89.60
2022-12-14T21:26:28.408Z,95.72
2022-12-14T21:28:55.317Z,120.63
2022-12-14T21:31:22.272Z,107.03
2022-12-14T21:33:50.030Z,92.60
2022-12-14T21:36:16.724Z,99.65
2022-12-14T21:38:43.329Z,95.75
2022-12-14T21:41:29.206Z,91.07
2022-12-14T21:43:55.761Z,85.20
2022-12-14T21:46:25.523Z,96.38
2022-12-14T21:48:55.711Z,86.40
2022-12-14T21:51:22.296Z,102.32
2022-12-14T21:54:01.637Z,91.65
2022-12-14T21:56:51.788Z,79.15
2022-12-14T21:59:24.200Z,98.40
2022-12-14T22:01:50.909Z,99.72
2022-12-14T22:04:17.598Z,111.82
2022-12-14T22:06:44.286Z,98.65
2022-12-14T22:09:11.056Z,112.57
2022-12-14T22:11:37.636Z,86.10
2022-12-14T22:14:04.254Z,91.50
2022-12-14T22:16:32.002Z,98.45
2022-12-14T22:18:59.478Z,99.38
2022-12-14T22:21:26.566Z,99.32
2022-12-14T22:23:56.660Z,87.05
2022-12-14T22:26:23.697Z,105.53
2022-12-14T22:28:53.549Z,100.25
2022-12-14T22:31:20.704Z,99.65
2022-12-14T22:33:49.562Z,91.68
2022-12-14T22:36:17.100Z,91.28
2022-12-14T22:38:44.367Z,112.55
2022-12-14T22:41:13.179Z,102.43
2022-12-14T22:43:40.260Z,94.13
2022-12-14T22:46:07.470Z,98.88
2022-12-14T22:48:34.989Z,98.82
2022-12-14T22:51:02.959Z,103.63
2022-12-14T22:53:30.102Z,118.93
2022-12-14T22:56:02.134Z,106.05
2022-12-14T22:58:29.109Z,112.07
2022-12-14T23:00:55.697Z,102.88
2022-12-14T23:03:23.213Z,76.25
2022-12-14T23:05:49.897Z,73.85
2022-12-14T23:08:16.581Z,80.10
2022-12-14T23:11:02.000Z,84.07
2022-12-14T23:13:47.226Z,66.95
2022-12-14T23:16:32.479Z,53.65
2022-12-14T23:19:17.775Z,78.78
2022-12-14T23:22:04.243Z,71.18
2022-12-14T23:24:50.203Z,68.57
2022-12-14T23:27:35.573Z,75.47
2022-12-14T23:30:20.617Z,79.40
2022-12-14T23:33:05.768Z,85.07
2022-12-14T23:35:51.241Z,74.22
2022-12-14T23:38:36.590Z,75.95
2022-12-14T23:41:21.919Z,77.55
2022-12-14T23:44:07.333Z,69.28
2022-12-14T23:46:52.576Z,74.85
2022-12-14T23:49:37.951Z,94.13
2022-12-14T23:52:22.888Z,74.47
2022-12-14T23:55:08.084Z,84.32
2022-12-14T23:57:53.365Z,85.32
